createdAt,value
2023-03-30T00:01:35.921Z,4.11
2023-03-30T00:03:44.809Z,4.11
2023-03-30T00:05:52.898Z,4.11
2023-03-30T00:07:38.985Z,4.11
2023-03-30T00:13:42.512Z,4.11
2023-03-30T00:18:29.618Z,4.11
2023-03-30T00:24:34.042Z,4.11
2023-03-30T00:28:37.224Z,4.11
2023-03-30T00:30:39.005Z,4.11
2023-03-30T00:34:41.935Z,4.11
2023-03-30T00:38:44.665Z,4.11
2023-03-30T00:40:46.559Z,4.11
2023-03-30T00:44:49.810Z,4.11
2023-03-30T00:50:54.021Z,4.11
2023-03-30T00:56:57.776Z,4.1
2023-03-30T01:01:00.028Z,4.1
2023-03-30T01:07:03.884Z,4.1
2023-03-30T01:11:06.861Z,4.1
2023-03-30T01:13:08.106Z,4.1
2023-03-30T01:17:10.421Z,4.1
2023-03-30T01:21:13.572Z,4.1
2023-03-30T01:23:15.353Z,4.1
2023-03-30T01:27:17.531Z,4.1
2023-03-30T01:31:20.477Z,4.1
2023-03-30T01:33:21.695Z,4.1
2023-03-30T01:37:24.486Z,4.1
2023-03-30T01:39:26.149Z,4.1
2023-03-30T01:41:27.182Z,4.1
2023-03-30T01:43:28.123Z,4.1
2023-03-30T01:49:33.079Z,4.1
2023-03-30T01:51:34.714Z,4.1
2023-03-30T01:55:37.192Z,4.1
2023-03-30T01:59:40.270Z,4.1
2023-03-30T02:05:44.863Z,4.1
2023-03-30T02:09:48.412Z,4.09
2023-03-30T02:15:53.482Z,4.09
2023-03-30T02:19:56.106Z,4.09
2023-03-30T02:21:57.331Z,4.09
2023-03-30T02:23:58.960Z,4.09
2023-03-30T02:26:00.216Z,4.09
2023-03-30T02:32:04.989Z,4.09
2023-03-30T02:38:09.005Z,4.09
2023-03-30T02:42:11.883Z,4.09
2023-03-30T02:48:16.467Z,4.09
2023-03-30T02:52:19.695Z,4.09
2023-03-30T02:54:21.181Z,4.09
2023-03-30T02:58:23.362Z,4.09
2023-03-30T03:02:26.364Z,4.08
2023-03-30T03:04:28.136Z,4.08
2023-03-30T03:08:30.691Z,4.08
2023-03-30T03:14:34.786Z,4.09
2023-03-30T03:20:38.689Z,4.08
2023-03-30T03:24:41.398Z,4.08
2023-03-30T03:30:45.208Z,4.08
2023-03-30T03:34:47.219Z,4.08
2023-03-30T03:36:48.340Z,4.08
2023-03-30T03:40:50.863Z,4.08
2023-03-30T03:44:53.559Z,4.08
2023-03-30T03:46:55.197Z,4.08
2023-03-30T03:50:57.597Z,4.08
2023-03-30T03:54:59.991Z,4.08
2023-03-30T03:57:01.135Z,4.08
2023-03-30T04:01:04.217Z,4.08
2023-03-30T04:03:04.896Z,4.08
2023-03-30T04:05:06.248Z,4.08
2023-03-30T04:07:07.354Z,4.08
2023-03-30T04:13:11.798Z,4.08
2023-03-30T04:15:13.417Z,4.08
2023-03-30T04:19:15.798Z,4.07
2023-03-30T04:23:18.553Z,4.08
2023-03-30T04:29:22.649Z,4.07
2023-03-30T04:33:25.645Z,4.07
2023-03-30T04:35:27.184Z,4.07
2023-03-30T04:39:30.002Z,4.07
2023-03-30T04:43:32.997Z,4.07
2023-03-30T04:45:34.701Z,4.07
2023-03-30T04:49:37.058Z,4.07
2023-03-30T04:55:41.608Z,4.07
2023-03-30T05:01:45.287Z,4.07
2023-03-30T05:11:52.263Z,4.07
2023-03-30T05:15:55.010Z,4.07
2023-03-30T05:17:56.157Z,4.07
2023-03-30T05:21:59.592Z,4.07
2023-03-30T05:26:03.011Z,4.06
2023-03-30T05:28:04.159Z,4.06
2023-03-30T05:32:07.192Z,4.06
2023-03-30T05:38:11.785Z,4.07
2023-03-30T05:44:15.795Z,4.06
2023-03-30T05:48:18.692Z,4.06
2023-03-30T05:54:22.058Z,4.06
2023-03-30T05:58:25.361Z,4.06
2023-03-30T06:00:27.025Z,4.06
2023-03-30T06:04:29.349Z,4.06
2023-03-30T06:08:31.974Z,4.06
2023-03-30T06:10:33.702Z,4.06
2023-03-30T06:14:36.120Z,4.06
2023-03-30T06:18:39.446Z,4.06
2023-03-30T06:20:40.800Z,4.06
2023-03-30T06:24:43.219Z,4.06
2023-03-30T06:26:44.302Z,4.06
2023-03-30T06:28:45.978Z,4.06
2023-03-30T06:30:47.824Z,4.06
2023-03-30T06:36:52.234Z,4.05
2023-03-30T06:42:56.906Z,4.06
2023-03-30T06:46:59.745Z,4.05
2023-03-30T06:53:04.629Z,4.06
2023-03-30T06:57:07.202Z,4.05
2023-03-30T07:03:11.435Z,4.05
2023-03-30T07:03:55.198Z,4.05
2023-03-30T07:07:58.219Z,4.05
2023-03-30T07:14:02.415Z,4.05
2023-03-30T07:20:06.839Z,4.05
2023-03-30T07:24:10.216Z,4.05
2023-03-30T07:30:21.637Z,4.05
2023-03-30T07:34:17.904Z,4.05
2023-03-30T07:36:19.593Z,4.05
2023-03-30T07:40:21.727Z,4.05
2023-03-30T07:44:24.547Z,4.05
2023-03-30T07:46:26.495Z,4.04
2023-03-30T07:50:30.186Z,4.04
2023-03-30T07:56:35.204Z,4.04
2023-03-30T08:02:39.823Z,4.04
2023-03-30T08:06:42.573Z,4.04
2023-03-30T08:10:45.453Z,4.04
2023-03-30T08:12:46.918Z,4.04
2023-03-30T08:16:49.250Z,4.04
2023-03-30T08:18:50.807Z,4.04
2023-03-30T08:22:53.574Z,4.04
2023-03-30T08:28:58.560Z,4.04
2023-03-30T08:35:02.298Z,4.04
2023-03-30T08:39:05.649Z,4.04
2023-03-30T08:45:10.518Z,4.04
2023-03-30T08:49:13.275Z,4.04
2023-03-30T08:51:14.701Z,4.04
2023-03-30T08:55:16.830Z,4.04
2023-03-30T08:59:19.027Z,4.04
2023-03-30T09:01:20.910Z,4.05
2023-03-30T09:05:23.821Z,4.05
2023-03-30T09:11:28.219Z,4.05
2023-03-30T09:17:32.128Z,4.05
2023-03-30T09:21:35.636Z,4.05
2023-03-30T09:27:40.483Z,4.06
2023-03-30T09:31:43.481Z,4.06
2023-03-30T09:33:44.956Z,4.07
2023-03-30T09:37:48.571Z,4.1
2023-03-30T09:41:51.744Z,4.1
2023-03-30T09:43:54.085Z,4.1
2023-03-30T09:47:57.273Z,4.12
2023-03-30T09:54:02.257Z,4.13
2023-03-30T10:00:06.645Z,4.13
2023-03-30T10:04:09.838Z,4.14
2023-03-30T10:10:13.235Z,4.12
2023-03-30T10:14:15.541Z,4.12
2023-03-30T10:16:17.028Z,4.13
2023-03-30T10:20:19.794Z,4.15
2023-03-30T10:24:22.407Z,4.13
2023-03-30T10:26:23.851Z,4.16
2023-03-30T10:30:26.028Z,4.16
2023-03-30T10:36:30.822Z,4.14
2023-03-30T10:40:33.630Z,4.14
2023-03-30T10:42:34.820Z,4.15
2023-03-30T10:46:37.682Z,4.15
2023-03-30T10:52:48.671Z,4.17
2023-03-30T10:58:44.934Z,4.18
2023-03-30T11:02:47.058Z,4.18
2023-03-30T11:08:51.249Z,4.19
2023-03-30T11:12:53.858Z,4.19
2023-03-30T11:14:54.974Z,4.19
2023-03-30T11:18:57.346Z,4.19
2023-03-30T11:22:59.677Z,4.19
2023-03-30T11:25:01.298Z,4.19
2023-03-30T11:29:04.569Z,4.19
2023-03-30T11:35:08.188Z,4.2
2023-03-30T11:41:11.942Z,4.2
2023-03-30T11:45:14.038Z,4.2
2023-03-30T11:51:18.988Z,4.2
2023-03-30T11:55:21.480Z,4.2
2023-03-30T11:57:23.823Z,4.2
2023-03-30T12:01:26.826Z,4.2
2023-03-30T12:05:29.552Z,4.2
2023-03-30T12:07:31.786Z,4.2
2023-03-30T12:11:34.209Z,4.2
2023-03-30T12:17:38.454Z,4.19
2023-03-30T12:23:42.230Z,4.19
2023-03-30T12:27:44.996Z,4.19
2023-03-30T12:33:48.362Z,4.19
2023-03-30T12:37:51.280Z,4.18
2023-03-30T12:39:52.511Z,4.18
2023-03-30T12:43:56.315Z,4.18
2023-03-30T12:47:58.435Z,4.18
2023-03-30T12:49:59.512Z,4.18
2023-03-30T12:54:02.420Z,4.18
2023-03-30T12:58:04.454Z,4.18
2023-03-30T13:00:05.306Z,4.18
2023-03-30T13:04:07.966Z,4.17
2023-03-30T13:06:09.253Z,4.18
2023-03-30T13:08:11.749Z,4.18
2023-03-30T13:10:12.767Z,4.18
2023-03-30T13:16:17.717Z,4.17
2023-03-30T13:18:18.819Z,4.17
2023-03-30T13:22:21.670Z,4.17
2023-03-30T13:26:32.290Z,4.17
2023-03-30T13:32:27.571Z,4.17
2023-03-30T13:36:30.023Z,4.17
2023-03-30T13:38:31.447Z,4.17
2023-03-30T13:42:34.290Z,4.17
2023-03-30T13:46:37.150Z,4.17
2023-03-30T13:48:47.017Z,4.17
2023-03-30T13:49:30.754Z,4.17
2023-03-30T13:53:33.386Z,4.17
2023-03-30T13:55:35.178Z,4.17
2023-03-30T13:59:38.757Z,4.17
2023-03-30T14:03:42.001Z,4.17
2023-03-30T14:09:45.571Z,4.17
2023-03-30T14:13:47.845Z,4.17
2023-03-30T14:15:49.148Z,4.16
2023-03-30T14:19:52.774Z,4.16
2023-03-30T14:23:55.724Z,4.16
2023-03-30T14:25:56.846Z,4.16
2023-03-30T14:29:58.803Z,4.16
2023-03-30T14:36:03.015Z,4.16
2023-03-30T14:42:06.960Z,4.16
2023-03-30T14:46:09.354Z,4.16
2023-03-30T14:52:14.520Z,4.16
2023-03-30T14:56:16.764Z,4.16
2023-03-30T14:58:18.455Z,4.16
2023-03-30T15:02:21.317Z,4.16
2023-03-30T15:06:24.290Z,4.16
2023-03-30T15:08:24.718Z,4.16
2023-03-30T15:12:28.078Z,4.16
2023-03-30T15:18:31.808Z,4.16
2023-03-30T15:24:35.228Z,4.15
2023-03-30T15:28:37.794Z,4.15
2023-03-30T15:34:41.870Z,4.15
2023-03-30T15:38:44.534Z,4.15
2023-03-30T15:40:45.675Z,4.15
2023-03-30T15:44:48.758Z,4.15
2023-03-30T15:50:52.890Z,4.15
2023-03-30T15:54:55.319Z,4.15
2023-03-30T15:58:57.460Z,4.15
2023-03-30T16:00:59.226Z,4.15
2023-03-30T16:05:02.061Z,4.15
2023-03-30T16:07:03.290Z,4.15
2023-03-30T16:09:05.484Z,4.14
2023-03-30T16:11:07.356Z,4.15
2023-03-30T16:17:12.194Z,4.14
2023-03-30T16:23:16.951Z,4.15
2023-03-30T16:27:20.029Z,4.15
2023-03-30T16:33:24.582Z,4.14
2023-03-30T16:37:26.970Z,4.14
2023-03-30T16:41:30.090Z,4.14
2023-03-30T16:43:31.140Z,4.14
2023-03-30T16:47:33.381Z,4.14
2023-03-30T16:49:35.052Z,4.14
2023-03-30T16:51:36.087Z,4.14
2023-03-30T16:53:37.212Z,4.14
2023-03-30T16:59:41.550Z,4.14
2023-03-30T17:01:43.461Z,4.15
2023-03-30T17:05:46.290Z,4.16
2023-03-30T17:09:49.075Z,4.15
2023-03-30T17:15:53.179Z,4.14
2023-03-30T17:19:55.278Z,4.14
2023-03-30T17:21:56.400Z,4.14
2023-03-30T17:25:58.817Z,4.14
2023-03-30T17:30:02.212Z,4.14
2023-03-30T17:32:03.457Z,4.14
2023-03-30T17:36:06.504Z,4.14
2023-03-30T17:42:10.975Z,4.14
2023-03-30T17:48:14.788Z,4.14
2023-03-30T17:52:17.568Z,4.14
2023-03-30T17:58:22.828Z,4.14
2023-03-30T18:02:25.375Z,4.14
2023-03-30T18:04:26.554Z,4.14
2023-03-30T18:08:29.257Z,4.14
2023-03-30T18:12:31.250Z,4.13
2023-03-30T18:14:32.988Z,4.14
2023-03-30T18:18:36.259Z,4.13
2023-03-30T18:24:40.258Z,4.13
2023-03-30T18:30:44.674Z,4.13
2023-03-30T18:34:47.288Z,4.13
2023-03-30T18:40:51.092Z,4.13
2023-03-30T18:44:54.413Z,4.13
2023-03-30T18:46:55.938Z,4.13
2023-03-30T18:50:59.448Z,4.13
2023-03-30T18:55:02.874Z,4.13
2023-03-30T18:57:04.009Z,4.13
2023-03-30T19:01:06.592Z,4.13
2023-03-30T19:07:10.810Z,4.13
2023-03-30T19:11:13.294Z,4.12
2023-03-30T19:13:14.712Z,4.12
2023-03-30T19:17:17.701Z,4.12
2023-03-30T19:23:21.895Z,4.12
2023-03-30T19:29:27.112Z,4.12
2023-03-30T19:33:29.772Z,4.12
2023-03-30T19:37:32.869Z,4.12
2023-03-30T19:39:34.622Z,4.12
2023-03-30T19:43:37.405Z,4.12
2023-03-30T19:47:39.862Z,4.12
2023-03-30T19:49:41.438Z,4.12
2023-03-30T19:53:44.476Z,4.12
2023-03-30T19:55:46.151Z,4.12
2023-03-30T19:57:47.466Z,4.12
2023-03-30T19:59:48.568Z,4.12
2023-03-30T20:05:53.241Z,4.12
2023-03-30T20:11:58.016Z,4.12
2023-03-30T20:16:01.363Z,4.12
2023-03-30T20:22:06.003Z,4.11
2023-03-30T20:26:09.463Z,4.11
2023-03-30T20:30:12.735Z,4.11
2023-03-30T20:32:14.279Z,4.11
2023-03-30T20:34:59.832Z,4.11
2023-03-30T20:37:00.793Z,4.11
2023-03-30T20:43:04.783Z,4.11
2023-03-30T20:49:09.109Z,4.11
2023-03-30T20:53:11.877Z,4.11
2023-03-30T20:59:16.471Z,4.11
2023-03-30T21:03:18.848Z,4.11
2023-03-30T21:05:20.190Z,4.11
2023-03-30T21:09:23.606Z,4.1
2023-03-30T21:13:26.761Z,4.1
2023-03-30T21:15:28.581Z,4.1
2023-03-30T21:19:31.380Z,4.11
2023-03-30T21:25:36.833Z,4.1
2023-03-30T21:31:41.645Z,4.1
2023-03-30T21:35:44.613Z,4.1
2023-03-30T21:41:49.006Z,4.1
2023-03-30T21:45:51.518Z,4.1
2023-03-30T21:47:52.735Z,4.1
2023-03-30T21:51:55.143Z,4.1
2023-03-30T21:55:58.383Z,4.1
2023-03-30T21:58:00.098Z,4.1
2023-03-30T22:02:03.084Z,4.1
2023-03-30T22:08:07.565Z,4.1
2023-03-30T22:14:12.008Z,4.1
2023-03-30T22:18:14.933Z,4.1
2023-03-30T22:24:19.456Z,4.1
2023-03-30T22:28:22.207Z,4.1
2023-03-30T22:30:23.892Z,4.1
2023-03-30T22:34:27.187Z,4.1
2023-03-30T22:38:30.212Z,4.09
2023-03-30T22:40:31.537Z,4.09
2023-03-30T22:44:34.104Z,4.1
2023-03-30T22:50:37.650Z,4.09
2023-03-30T22:54:40.247Z,4.09
2023-03-30T22:56:41.708Z,4.09
2023-03-30T23:00:45.263Z,4.09
2023-03-30T23:06:49.025Z,4.09
2023-03-30T23:12:53.858Z,4.09
2023-03-30T23:16:57.389Z,4.09
2023-03-30T23:21:00.456Z,4.09
2023-03-30T23:23:02.012Z,4.09
2023-03-30T23:27:05.123Z,4.08
2023-03-30T23:31:08.415Z,4.08
2023-03-30T23:33:09.757Z,4.09
2023-03-30T23:37:13.352Z,4.08
2023-03-30T23:39:15.077Z,4.08
2023-03-30T23:43:17.922Z,4.08
2023-03-30T23:49:22.256Z,4.08
2023-03-30T23:55:26.220Z,4.08
2023-03-30T23:59:28.723Z,4.08
